createdAt,value
2018-06-17T00:01:40.613Z,148931.91
2018-06-17T00:06:41.194Z,148935.66
2018-06-17T00:09:12.168Z,148938.14
2018-06-17T00:11:43.423Z,148958.08
2018-06-17T00:14:14.323Z,148984.28
2018-06-17T00:16:45.803Z,148983.03
2018-06-17T00:19:16.866Z,149004.22
2018-06-17T00:21:48.777Z,148998.00
2018-06-17T00:24:19.906Z,148984.28
2018-06-17T00:26:51.276Z,148964.36
2018-06-17T00:29:22.363Z,148974.31
2018-06-17T00:31:54.548Z,148960.56
2018-06-17T00:34:25.691Z,148946.86
2018-06-17T00:36:56.800Z,148929.42
2018-06-17T00:39:27.858Z,148940.64
2018-06-17T00:41:59.762Z,148913.12
2018-06-17T00:44:31.002Z,148898.19
2018-06-17T00:47:03.945Z,148889.47
2018-06-17T00:49:35.846Z,148879.50
2018-06-17T00:52:07.222Z,148888.22
2018-06-17T00:54:38.352Z,148891.95
2018-06-17T00:57:19.566Z,148895.69
2018-06-17T00:59:50.715Z,148883.25
2018-06-17T01:02:23.564Z,148880.75
2018-06-17T01:04:54.419Z,148889.47
2018-06-17T01:07:25.458Z,148877.02
2018-06-17T01:09:57.411Z,148889.47
2018-06-17T01:12:29.227Z,148894.44
2018-06-17T01:15:00.135Z,148894.44
2018-06-17T01:17:31.074Z,148899.44
2018-06-17T01:20:02.153Z,148904.42
2018-06-17T01:22:33.511Z,148865.75
2018-06-17T01:25:04.369Z,148888.22
2018-06-17T01:27:35.533Z,148896.94
2018-06-17T01:30:06.564Z,148875.77
2018-06-17T01:32:38.589Z,148862.02
2018-06-17T01:35:09.752Z,148872.03
2018-06-17T01:37:40.824Z,148867.05
2018-06-17T01:40:12.180Z,148860.77
2018-06-17T01:42:43.487Z,148859.53
2018-06-17T01:45:14.552Z,148837.11
2018-06-17T01:47:46.600Z,148829.63
2018-06-17T01:50:17.664Z,148830.87
2018-06-17T01:52:50.538Z,148828.39
2018-06-17T01:55:21.737Z,148805.92
2018-06-17T01:57:53.064Z,148810.91
2018-06-17T02:00:24.169Z,148802.19
2018-06-17T02:02:55.133Z,148803.44
2018-06-17T02:05:31.806Z,148797.22
2018-06-17T02:08:07.623Z,148769.77
2018-06-17T02:10:43.346Z,148793.47
2018-06-17T02:13:14.558Z,148777.28
2018-06-17T02:15:45.613Z,148763.55
2018-06-17T02:18:16.551Z,148788.50
2018-06-17T02:20:47.634Z,148777.28
2018-06-17T02:23:20.666Z,148784.75
2018-06-17T02:25:51.893Z,148814.64
2018-06-17T02:28:23.086Z,148794.72
2018-06-17T02:30:54.193Z,148794.72
2018-06-17T02:33:25.697Z,148823.41
2018-06-17T02:35:56.798Z,148833.38
2018-06-17T02:38:28.015Z,148870.78
2018-06-17T02:40:58.936Z,148896.94
2018-06-17T02:43:30.126Z,148891.95
2018-06-17T02:46:06.104Z,148914.42
2018-06-17T02:48:42.157Z,148904.42
2018-06-17T02:51:17.867Z,148901.92
2018-06-17T02:53:53.765Z,148941.88
2018-06-17T02:56:24.736Z,148945.63
2018-06-17T02:58:57.487Z,148948.11
2018-06-17T03:01:28.553Z,148935.66
2018-06-17T03:03:59.932Z,148934.41
2018-06-17T03:06:31.101Z,148948.11
2018-06-17T03:09:02.171Z,148978.06
2018-06-17T03:11:33.071Z,148975.56
2018-06-17T03:14:04.199Z,148993.00
2018-06-17T03:16:35.448Z,149004.22
2018-06-17T03:19:06.651Z,149001.73
2018-06-17T03:21:38.824Z,148980.55
2018-06-17T03:24:13.719Z,148991.77
2018-06-17T03:26:49.809Z,149022.97
2018-06-17T03:29:25.479Z,149049.12
2018-06-17T03:32:02.004Z,149071.61
2018-06-17T03:34:32.793Z,149089.06
2018-06-17T03:37:03.921Z,149142.75
2018-06-17T03:39:35.089Z,149161.48
2018-06-17T03:42:06.069Z,149193.91
2018-06-17T03:44:37.113Z,149267.56
2018-06-17T03:47:08.499Z,149343.77
2018-06-17T03:49:40.570Z,149547.34
2018-06-17T03:52:11.497Z,149778.56
2018-06-17T03:54:43.347Z,149853.59
2018-06-17T03:57:15.218Z,149786.06
2018-06-17T03:59:46.974Z,149653.53
2018-06-17T04:02:18.040Z,149643.55
2018-06-17T04:04:54.184Z,149701.06
2018-06-17T04:07:25.363Z,149744.81
2018-06-17T04:09:56.362Z,149939.86
2018-06-17T04:12:27.341Z,149938.63
2018-06-17T04:14:59.220Z,149957.41
2018-06-17T04:20:12.888Z,149706.06
2018-06-17T04:22:43.613Z,149731.08
2018-06-17T04:25:15.521Z,149511.13
2018-06-17T04:27:46.502Z,149607.30
2018-06-17T04:30:17.667Z,149627.31
2018-06-17T04:32:48.653Z,149581.09
2018-06-17T04:35:20.648Z,149653.53
2018-06-17T04:37:51.710Z,149683.59
2018-06-17T04:40:22.727Z,149798.55
2018-06-17T04:45:29.980Z,149737.31
2018-06-17T04:48:01.005Z,149873.63
2018-06-17T04:50:32.112Z,149986.13
2018-06-17T04:53:03.300Z,150044.95
2018-06-17T04:55:35.545Z,150033.70
2018-06-17T05:00:58.762Z,150130.03
2018-06-17T05:03:33.552Z,150401.70
2018-06-17T05:06:05.807Z,150521.94
2018-06-17T05:08:37.081Z,150588.34
2018-06-17T05:11:08.063Z,150537.00
2018-06-17T05:13:42.585Z,150421.72
2018-06-17T05:16:20.174Z,150550.75
2018-06-17T05:18:54.647Z,150574.58
2018-06-17T05:21:25.730Z,150498.16
2018-06-17T05:24:05.486Z,150583.34
2018-06-17T05:26:37.555Z,150663.52
2018-06-17T05:29:14.019Z,150420.47
2018-06-17T05:31:44.666Z,150389.20
2018-06-17T05:34:15.359Z,150688.59
2018-06-17T05:36:46.403Z,150854.03
2018-06-17T05:39:19.098Z,150754.98
2018-06-17T05:41:59.168Z,150837.75
2018-06-17T05:44:34.088Z,150818.97
2018-06-17T05:47:05.314Z,150948.09
2018-06-17T05:49:46.864Z,151185.14
2018-06-17T05:54:57.888Z,151524.09
2018-06-17T06:00:24.207Z,151971.41
2018-06-17T06:02:54.871Z,152357.50
2018-06-17T06:05:25.611Z,152708.67
2018-06-17T06:07:56.377Z,152385.19
2018-06-17T06:10:27.169Z,152133.58
2018-06-17T06:12:57.862Z,152090.83
2018-06-17T06:15:29.736Z,152397.81
2018-06-17T06:18:12.971Z,152789.30
2018-06-17T06:20:43.681Z,152672.20
2018-06-17T06:23:14.284Z,152641.98
2018-06-17T06:25:50.180Z,152951.75
2018-06-17T06:28:20.793Z,152704.89
2018-06-17T06:31:03.931Z,152411.63
2018-06-17T06:36:23.633Z,152901.37
2018-06-17T06:39:07.058Z,152629.38
2018-06-17T06:41:38.776Z,152888.81
2018-06-17T06:44:10.461Z,152956.83
2018-06-17T06:46:41.630Z,152689.81
2018-06-17T06:49:12.243Z,152756.55
2018-06-17T06:51:49.336Z,152714.95
2018-06-17T06:57:09.314Z,152747.70
2018-06-17T06:59:45.767Z,152537.50
2018-06-17T07:02:28.228Z,152478.28
2018-06-17T07:05:15.635Z,152722.55
2018-06-17T07:10:44.067Z,152464.47
2018-06-17T07:13:18.294Z,152594.12
2018-06-17T07:16:07.047Z,152777.98
2018-06-17T07:21:26.029Z,152817.00
2018-06-17T07:24:00.911Z,152813.23
2018-06-17T07:29:44.165Z,152541.28
2018-06-17T07:32:15.633Z,152371.33
2018-06-17T07:34:51.725Z,152309.72
2018-06-17T07:37:22.660Z,152187.67
2018-06-17T07:41:01.718Z,152048.09
2018-06-17T07:43:33.569Z,151746.41
2018-06-17T07:46:10.409Z,151982.70
2018-06-17T07:49:54.584Z,151772.86
2018-06-17T07:52:40.817Z,151701.20
2018-06-17T07:55:19.483Z,151668.58
2018-06-17T07:57:51.650Z,151644.69
2018-06-17T08:00:27.958Z,151743.91
2018-06-17T08:03:04.248Z,151800.47
2018-06-17T08:05:38.989Z,151574.36
2018-06-17T08:08:17.462Z,151398.56
2018-06-17T08:10:48.320Z,151286.80
2018-06-17T08:13:22.936Z,151321.94
2018-06-17T08:16:06.257Z,151221.53
2018-06-17T08:18:36.828Z,151035.86
2018-06-17T08:21:07.609Z,150920.48
2018-06-17T08:23:49.153Z,150803.91
2018-06-17T08:26:35.532Z,150682.34
2018-06-17T08:29:06.302Z,150526.98
2018-06-17T08:31:37.200Z,150513.17
2018-06-17T08:34:07.973Z,150589.59
2018-06-17T08:36:41.917Z,150503.17
2018-06-17T08:39:15.351Z,150531.98
2018-06-17T08:44:57.461Z,150563.27
2018-06-17T08:47:35.978Z,150610.86
2018-06-17T08:50:07.220Z,150479.34
2018-06-17T08:52:43.296Z,150476.80
2018-06-17T08:55:23.226Z,150544.50
2018-06-17T09:00:49.446Z,150466.80
2018-06-17T09:03:33.365Z,150444.28
2018-06-17T09:06:06.047Z,150450.53
2018-06-17T09:11:36.933Z,150531.98
2018-06-17T09:14:10.090Z,150513.17
2018-06-17T09:16:43.374Z,150547.00
2018-06-17T09:19:14.816Z,150592.09
2018-06-17T09:21:55.861Z,150587.09
2018-06-17T09:24:29.979Z,150585.83
2018-06-17T09:27:00.876Z,150637.19
2018-06-17T09:29:38.548Z,150672.33
2018-06-17T09:32:11.079Z,150749.97
2018-06-17T09:37:34.586Z,150582.08
2018-06-17T09:40:14.954Z,150587.09
2018-06-17T09:42:45.509Z,150654.75
2018-06-17T09:45:16.490Z,150689.84
2018-06-17T09:47:58.789Z,150698.61
2018-06-17T09:50:38.764Z,150719.94
2018-06-17T09:53:09.537Z,150795.14
2018-06-17T09:55:41.563Z,150793.84
2018-06-17T09:58:12.067Z,150923.00
2018-06-17T10:00:42.445Z,150815.22
2018-06-17T10:03:22.108Z,150792.59
2018-06-17T10:06:09.935Z,150850.28
2018-06-17T10:08:46.524Z,150840.25
2018-06-17T10:11:16.789Z,150832.75
2018-06-17T10:13:57.928Z,150812.72
2018-06-17T10:16:29.160Z,150845.27
2018-06-17T10:19:06.132Z,150876.61
2018-06-17T10:21:50.263Z,150854.03
2018-06-17T10:27:20.785Z,150902.91
2018-06-17T10:30:15.277Z,150911.72
2018-06-17T10:32:46.003Z,150892.89
2018-06-17T10:35:16.647Z,150894.14
2018-06-17T10:37:47.278Z,150872.86
2018-06-17T10:40:34.030Z,151003.30
2018-06-17T10:43:14.240Z,151069.73
2018-06-17T10:45:57.895Z,151023.33
2018-06-17T10:48:28.646Z,150872.86
2018-06-17T10:50:59.297Z,150855.28
2018-06-17T10:56:24.851Z,150866.59
2018-06-17T10:58:55.466Z,151009.56
2018-06-17T11:04:17.918Z,151119.94
2018-06-17T11:07:06.080Z,151150.06
2018-06-17T11:12:21.835Z,150945.59
2018-06-17T11:20:29.620Z,150679.83
2018-06-17T11:23:00.690Z,150584.59
2018-06-17T11:25:31.706Z,150537.00
2018-06-17T11:33:37.041Z,149719.84
2018-06-17T11:36:12.732Z,149617.28
2018-06-17T11:39:04.338Z,149506.13
2018-06-17T11:41:50.966Z,149301.28
2018-06-17T11:44:23.344Z,149205.17
2018-06-17T11:49:51.277Z,149129.03
2018-06-17T11:52:28.190Z,149024.20
2018-06-17T11:55:04.958Z,148999.23
2018-06-17T11:57:35.637Z,148985.53
2018-06-17T12:00:07.029Z,148964.36
2018-06-17T12:02:37.715Z,148963.11
2018-06-17T12:05:08.427Z,148959.31
2018-06-17T12:10:34.331Z,148956.83
2018-06-17T12:13:05.242Z,148936.89
2018-06-17T12:18:21.518Z,148956.83
2018-06-17T12:23:51.638Z,148970.58
2018-06-17T12:32:08.420Z,149044.14
2018-06-17T12:34:50.339Z,149056.66
2018-06-17T12:40:31.751Z,149080.33
2018-06-17T12:43:02.458Z,149101.52
2018-06-17T12:45:33.253Z,149160.25
2018-06-17T12:48:18.079Z,149215.14
2018-06-17T12:51:06.280Z,149275.05
2018-06-17T12:53:36.996Z,149232.59
2018-06-17T12:56:08.269Z,149302.52
2018-06-17T12:58:39.149Z,149384.94
2018-06-17T13:01:14.921Z,149414.91
2018-06-17T13:03:45.569Z,149409.92
2018-06-17T13:06:27.561Z,149479.83
2018-06-17T13:08:58.295Z,149553.59
2018-06-17T13:11:29.685Z,149563.58
2018-06-17T13:14:00.361Z,149659.78
2018-06-17T13:16:31.060Z,149734.81
2018-06-17T13:19:01.773Z,149689.83
2018-06-17T13:21:32.478Z,149741.06
2018-06-17T13:24:03.396Z,149829.81
2018-06-17T13:26:34.000Z,149866.13
2018-06-17T13:29:04.982Z,149901.09
2018-06-17T13:31:35.632Z,149864.87
2018-06-17T13:34:06.811Z,149863.63
2018-06-17T13:36:37.604Z,149929.88
2018-06-17T13:39:10.445Z,149893.59
2018-06-17T13:41:41.161Z,149908.59
2018-06-17T13:44:11.911Z,149857.33
2018-06-17T13:46:42.768Z,149843.59
2018-06-17T13:49:13.474Z,149772.33
2018-06-17T13:51:44.175Z,149754.80
2018-06-17T13:54:14.948Z,149759.78
2018-06-17T13:56:45.759Z,149844.84
2018-06-17T13:59:16.855Z,149918.63
2018-06-17T14:01:47.611Z,149982.39
2018-06-17T14:04:18.534Z,149951.11
2018-06-17T14:06:49.452Z,149938.63
2018-06-17T14:09:25.155Z,149973.64
2018-06-17T14:11:57.499Z,149958.66
2018-06-17T14:14:28.276Z,149979.89
2018-06-17T14:17:00.000Z,150004.92
2018-06-17T14:19:30.780Z,150042.45
2018-06-17T14:22:01.414Z,150048.70
2018-06-17T14:24:32.185Z,150072.50
2018-06-17T14:27:02.893Z,150024.97
2018-06-17T14:29:33.668Z,149943.61
2018-06-17T14:32:04.544Z,149897.34
2018-06-17T14:34:35.137Z,149918.63
2018-06-17T14:37:06.070Z,149919.88
2018-06-17T14:39:38.058Z,149802.28
2018-06-17T14:42:13.622Z,149803.53
2018-06-17T14:44:49.429Z,149863.63
2018-06-17T14:47:24.897Z,149871.13
2018-06-17T14:50:00.769Z,149829.81
2018-06-17T14:52:36.391Z,149837.30
2018-06-17T14:55:07.285Z,149792.31
2018-06-17T14:57:37.974Z,149772.33
2018-06-17T15:00:08.755Z,149772.33
2018-06-17T15:02:39.422Z,149721.08
2018-06-17T15:05:10.323Z,149759.78
2018-06-17T15:07:48.262Z,149748.56
2018-06-17T15:10:19.245Z,149749.80
2018-06-17T15:12:50.085Z,149776.06
2018-06-17T15:15:20.778Z,149816.08
2018-06-17T15:17:51.621Z,149813.53
2018-06-17T15:20:22.283Z,149758.53
2018-06-17T15:22:53.018Z,149724.83
2018-06-17T15:25:23.645Z,149752.30
2018-06-17T15:27:54.397Z,149788.56
2018-06-17T15:30:25.201Z,149813.53
2018-06-17T15:34:00.395Z,149837.30
2018-06-17T15:36:36.207Z,149826.06
2018-06-17T15:39:14.807Z,149848.59
2018-06-17T15:41:45.957Z,149811.03
2018-06-17T15:44:16.618Z,149794.80
2018-06-17T15:46:47.314Z,149736.06
2018-06-17T15:49:17.943Z,149748.56
2018-06-17T15:51:48.738Z,149808.53
2018-06-17T15:54:19.662Z,149836.06
2018-06-17T15:56:50.338Z,149867.37
2018-06-17T15:59:21.008Z,149866.13
2018-06-17T16:01:51.772Z,149906.09
2018-06-17T16:04:22.505Z,149918.63
2018-06-17T16:06:53.263Z,149846.09
2018-06-17T16:09:30.893Z,149781.06
2018-06-17T16:12:07.691Z,149766.03
2018-06-17T16:14:43.821Z,149756.03
2018-06-17T16:17:19.811Z,149792.31
2018-06-17T16:19:55.705Z,149794.80
2018-06-17T16:22:26.713Z,149781.06
2018-06-17T16:24:57.724Z,149763.53
2018-06-17T16:27:29.197Z,149778.56
2018-06-17T16:30:00.775Z,149819.81
2018-06-17T16:32:32.113Z,149829.81
2018-06-17T16:35:03.569Z,149838.55
2018-06-17T16:37:36.161Z,149851.09
2018-06-17T16:40:09.609Z,149852.34
2018-06-17T16:42:41.146Z,149858.58
2018-06-17T16:45:12.481Z,149818.58
2018-06-17T16:47:43.948Z,149779.81
2018-06-17T16:50:15.276Z,149766.03
2018-06-17T16:52:51.135Z,149773.58
2018-06-17T16:55:26.804Z,149779.81
2018-06-17T16:58:02.560Z,149743.56
2018-06-17T17:00:33.170Z,149741.06
2018-06-17T17:03:03.870Z,149723.58
2018-06-17T17:05:34.404Z,149702.31
2018-06-17T17:08:05.212Z,149702.31
2018-06-17T17:10:35.921Z,149667.27
2018-06-17T17:13:06.587Z,149651.03
2018-06-17T17:15:37.339Z,149634.81
2018-06-17T17:18:08.083Z,149623.53
2018-06-17T17:20:38.755Z,149608.55
2018-06-17T17:23:09.763Z,149583.59
2018-06-17T17:25:40.448Z,149554.84
2018-06-17T17:28:11.541Z,149556.09
2018-06-17T17:30:46.441Z,149537.38
2018-06-17T17:33:22.098Z,149521.11
2018-06-17T17:35:57.549Z,149489.86
2018-06-17T17:39:32.502Z,149474.84
2018-06-17T17:42:04.561Z,149396.20
2018-06-17T17:44:40.621Z,149369.97
2018-06-17T17:47:17.638Z,149378.69
2018-06-17T17:49:49.097Z,149338.73
2018-06-17T17:52:19.863Z,149356.25
2018-06-17T17:54:50.687Z,149362.47
2018-06-17T17:57:21.467Z,149369.97
2018-06-17T17:59:52.143Z,149379.94
2018-06-17T18:02:23.372Z,149363.72
2018-06-17T18:04:54.318Z,149378.69
2018-06-17T18:07:25.616Z,149377.44
2018-06-17T18:09:57.288Z,149371.20
2018-06-17T18:12:28.892Z,149358.73
2018-06-17T18:15:00.710Z,149366.22
2018-06-17T18:17:33.125Z,149382.44
2018-06-17T18:20:04.413Z,149401.19
2018-06-17T18:22:35.561Z,149386.17
2018-06-17T18:25:12.069Z,149387.42
2018-06-17T18:27:47.972Z,149396.20
2018-06-17T18:30:23.953Z,149347.52
2018-06-17T18:32:59.875Z,149318.78
2018-06-17T18:35:35.579Z,149321.28
2018-06-17T18:38:06.767Z,149297.53
2018-06-17T18:40:37.889Z,149285.02
2018-06-17T18:43:09.146Z,149273.80
2018-06-17T18:45:40.308Z,149248.84
2018-06-17T18:48:11.608Z,149248.84
2018-06-17T18:50:43.258Z,149215.14
2018-06-17T18:53:23.784Z,149196.39
2018-06-17T18:55:55.009Z,149166.47
2018-06-17T18:58:26.424Z,149176.45
2018-06-17T19:00:57.625Z,149190.16
2018-06-17T19:03:28.708Z,149238.83
2018-06-17T19:05:59.929Z,149255.09
2018-06-17T19:08:35.845Z,149238.83
2018-06-17T19:11:13.675Z,149192.66
2018-06-17T19:13:58.818Z,149226.36
2018-06-17T19:16:34.682Z,149233.84
2018-06-17T19:19:05.908Z,149262.56
2018-06-17T19:21:37.137Z,149263.81
2018-06-17T19:24:08.315Z,149233.84
2018-06-17T19:26:39.345Z,149223.87
2018-06-17T19:29:10.619Z,149166.47
2018-06-17T19:31:42.637Z,149120.31
2018-06-17T19:34:13.746Z,149097.78
2018-06-17T19:36:44.536Z,149115.28
2018-06-17T19:39:15.656Z,149154.02
2018-06-17T19:41:47.316Z,149034.17
2018-06-17T19:44:18.505Z,148994.25
2018-06-17T19:46:49.606Z,148799.70
2018-06-17T19:49:20.835Z,148718.67
2018-06-17T19:51:56.760Z,148534.22
2018-06-17T19:54:32.701Z,148415.89
2018-06-17T19:57:08.972Z,148286.41
2018-06-17T19:59:44.866Z,148262.73
2018-06-17T20:02:15.991Z,148255.28
2018-06-17T20:04:47.447Z,148196.75
2018-06-17T20:07:18.611Z,148206.75
2018-06-17T20:09:49.666Z,148201.72
2018-06-17T20:12:20.837Z,148191.78
2018-06-17T20:14:51.842Z,148209.22
2018-06-17T20:17:23.140Z,148225.39
2018-06-17T20:19:54.295Z,148242.80
2018-06-17T20:22:25.157Z,148237.81
2018-06-17T20:24:56.235Z,148262.73
2018-06-17T20:27:27.397Z,148273.92
2018-06-17T20:29:58.521Z,148306.34
2018-06-17T20:32:34.692Z,148300.12
2018-06-17T20:35:10.808Z,148354.91
2018-06-17T20:37:47.610Z,148407.19
2018-06-17T20:40:23.594Z,148465.69
2018-06-17T20:42:59.817Z,148506.84
2018-06-17T20:45:30.956Z,148562.89
2018-06-17T20:48:03.914Z,148584.09
2018-06-17T20:50:35.000Z,148608.98
2018-06-17T20:53:06.694Z,148628.91
2018-06-17T20:55:38.045Z,148650.11
2018-06-17T20:58:09.295Z,148672.52
2018-06-17T21:00:40.383Z,148677.50
2018-06-17T21:03:11.640Z,148698.70
2018-06-17T21:05:42.598Z,148623.92
2018-06-17T21:08:14.692Z,148665.05
2018-06-17T21:10:46.625Z,148692.48
2018-06-17T21:13:18.699Z,148692.48
2018-06-17T21:15:50.067Z,148681.28
2018-06-17T21:18:26.106Z,148701.19
2018-06-17T21:21:03.137Z,148727.44
2018-06-17T21:23:39.093Z,148706.17
2018-06-17T21:26:14.634Z,148692.48
2018-06-17T21:28:46.802Z,148702.44
2018-06-17T21:31:18.892Z,148676.25
2018-06-17T21:33:49.974Z,148716.13
2018-06-17T21:36:21.169Z,148689.98
2018-06-17T21:38:53.340Z,148696.22
2018-06-17T21:41:24.395Z,148739.88
2018-06-17T21:43:55.476Z,148763.55
2018-06-17T21:46:29.767Z,148761.05
2018-06-17T21:49:02.403Z,148744.88
2018-06-17T21:51:33.670Z,148744.88
2018-06-17T21:54:10.881Z,148738.64
2018-06-17T21:56:41.607Z,148742.38
2018-06-17T21:59:13.400Z,148742.38
2018-06-17T22:01:44.225Z,148744.88
2018-06-17T22:04:19.911Z,148729.92
2018-06-17T22:06:50.553Z,148729.92
2018-06-17T22:09:26.240Z,148744.88
2018-06-17T22:12:01.931Z,148723.66
2018-06-17T22:14:37.984Z,148716.13
2018-06-17T22:17:13.660Z,148689.98
2018-06-17T22:19:44.779Z,148685.00
2018-06-17T22:22:15.909Z,148687.50
2018-06-17T22:24:47.112Z,148692.48
2018-06-17T22:27:18.378Z,148682.53
2018-06-17T22:29:49.395Z,148666.28
2018-06-17T22:32:20.708Z,148704.92
2018-06-17T22:34:55.744Z,148728.69
2018-06-17T22:37:27.139Z,148722.41
2018-06-17T22:39:59.379Z,148742.38
2018-06-17T22:42:30.333Z,148747.36
2018-06-17T22:45:02.338Z,148741.12
2018-06-17T22:47:38.154Z,148746.11
2018-06-17T22:50:09.589Z,148724.91
2018-06-17T22:52:52.802Z,148736.16
2018-06-17T22:55:24.661Z,148733.66
2018-06-17T22:58:00.783Z,148741.12
2018-06-17T23:00:37.477Z,148706.17
2018-06-17T23:03:13.457Z,148704.92
2018-06-17T23:05:49.503Z,148709.91
2018-06-17T23:08:25.269Z,148701.19
2018-06-17T23:10:56.991Z,148689.98
2018-06-17T23:13:28.763Z,148652.59
2018-06-17T23:15:59.936Z,148627.66
2018-06-17T23:18:31.028Z,148626.41
2018-06-17T23:21:01.997Z,148637.66
2018-06-17T23:23:34.086Z,148660.06
2018-06-17T23:26:08.060Z,148653.84
2018-06-17T23:28:39.951Z,148627.66
2018-06-17T23:31:10.931Z,148631.44
2018-06-17T23:33:42.000Z,148631.44
2018-06-17T23:36:13.009Z,148613.97
2018-06-17T23:38:44.003Z,148618.94
2018-06-17T23:41:16.914Z,148621.44
2018-06-17T23:43:48.910Z,148626.41
2018-06-17T23:46:24.776Z,148612.72
2018-06-17T23:49:01.064Z,148612.72
2018-06-17T23:51:37.018Z,148607.75
2018-06-17T23:54:13.094Z,148590.31
2018-06-17T23:56:44.814Z,148585.34
2018-06-17T23:59:15.616Z,148591.56
